Airfield :
LOGIN :

Register | Disclaimer

   EN    FR    IT 

 










Legend :    VFR   Marginal VFR   IFR   Intensive IFR   Very Intensive IFR
Visi :
Ceiling :
>= 8 km
>= 3000ft
5 to 8 km
1000 to 3000 ft
1500m to 5 km
500 to 1000 ft
800 to 1500m
200 to 500 ft
< 800m
< 200 ft
Symbols :   Thunderstorms  Fog  Heavy snow  Heavy precipitations  Wind > 20 kt
SIGMETs :     Misc.  Thunderstorms  Icing  Turbulence  Mountain Waves  Volcanic Ashes







- Airport Elevation : 90 ft
- IATA code : NTE
- Download approach charts


LFRS - Nantes

CURRENT METAR :
  • 220530Z AUTO 25016G28KT 220V280 6000 OVC007 12/11 Q1017 BECMG 27025G40KT BKN013

EXPIRED METARs :
  • 220500Z AUTO 26017KT 9999 OVC005 12/12 Q1017 TEMPO 2500 -DZRA BECMG 27025G40KT BKN013
  • 220430Z AUTO 26017KT 5000 -DZ BR OVC005 12/12 Q1017 TEMPO 2500 -DZRA BECMG 27025G40KT BKN013
  • 220400Z AUTO 26018KT 240V300 6000 -DZ OVC005 12/12 Q1017 TEMPO 2500 -DZRA BECMG 25015G30KT
  • 220330Z AUTO 26016G26KT 3500 -RA BR OVC004 12/12 Q1018 TEMPO 2500 -DZRA
  • 220300Z AUTO 26017KT 3900 -DZ BR OVC004 12/12 Q1018 TEMPO 2500 -DZRA BECMG 25015G30KT

TAF TAF LFRS
Valid from the 22 at 06:00 until the 23 at 12:00 UTC


220500Z 2206/2312 25018G30KT 5000 -DZ BKN006
TEMPO 2206/2207 2500 -RADZ OVC003
BECMG 2207/2209 27025G40KT 9999 NSW BKN013
BECMG 2209/2211 BKN016
BECMG 2211/2213 28015G30KT
BECMG 2214/2216 30012KT
BECMG 2221/2223 VRB03KT
PROB30
TEMPO 2223/2301 2800 BR BKN007
BECMG 2301/2303 19010KT
BECMG 2303/2305 4000 -DZ BKN006
TEMPO 2305/2312 2500 -RADZ BKN004
ATIS : +33 2 40 05 12 74
No reported NOTAMs for that airfield.
2 SIGMETs reported for the Brest FIR (LFRR) :
 
Severe turbulence
LFRR SIGMET 1 VALID 220400/220800 LFPW
LFRR BREST FIR/UIR SEV TURB FCST WI N4630 W00800 - N4900 W00800 - N4915 W00700 - N4845 W00345 - N4700 W00315 - N4630 W00800 SFC/FL060 STNR INTSF=
Severe turbulence
LFRR SIGMET 1 VALID 220310/220600 LFPW
LFRR BREST FIR/UIR SEV TURB FCST WI N4630 W00800 - N4900 W00800 - N4915 W00700 - N4845 W00345 - N4700 W00315 - N4630 W00800 SFC/FL060 STNR INTSF=



MET'MAP, your aeronautical weather chart ! - Copyright ORBIFLY December 2007 - Disclaimer

ORBIFLY MET'MAP TEAM :

Programming & Development : Alexandra Zaïnal
Concept & Development : Baudouin d'Aumeries
Co-Development & Prog : Marc-Olivier Méhu
Technical & hardware support : Manuel Goepfert

Contact : metmap@orbifly.com




SOURCES & CREDITS :

   NOAA